Time;durP1;ratioP1;P1;durP2;ratioP2;P2;SDS_P1;SDS_P2;PMS_P1;PMS_P2;Temp;Humidity;BMP_temperature;BMP_pressure;BME280_temperature;BME280_humidity;BME280_pressure;Samples;Min_cycle;Max_cycle;Signal;HPM_P1;HPM_P2
2024/01/27 00:02:24;;;;;;;23.73;6.28;;;;;;;2.16;100.00;103442.19;5016464;28;20029;-65
2024/01/27 00:04:49;;;;;;;23.13;7.07;;;;;;;2.15;100.00;103440.44;5019685;28;20030;-65
2024/01/27 00:07:14;;;;;;;23.92;7.60;;;;;;;2.13;100.00;103456.19;5017268;28;20129;-65
2024/01/27 00:09:40;;;;;;;24.13;8.00;;;;;;;2.14;100.00;103452.69;5022775;28;20442;-65
2024/01/27 00:12:06;;;;;;;22.73;8.02;;;;;;;2.11;100.00;103446.56;5016466;28;20017;-65
2024/01/27 00:14:31;;;;;;;16.58;7.10;;;;;;;2.09;100.00;103443.94;5018841;28;20046;-65
2024/01/27 00:16:57;;;;;;;26.48;7.00;;;;;;;2.09;100.00;103438.69;5016753;28;20567;-65
2024/01/27 00:19:22;;;;;;;24.60;8.25;;;;;;;2.11;100.00;103429.06;5019708;28;20025;-65
2024/01/27 00:21:47;;;;;;;18.05;7.78;;;;;;;2.11;100.00;103426.47;5015495;28;20092;-65
2024/01/27 00:24:14;;;;;;;20.67;7.47;;;;;;;2.09;100.00;103427.34;5019053;28;20029;-65
2024/01/27 00:26:39;;;;;;;19.38;6.90;;;;;;;2.07;100.00;103427.34;5017331;28;20061;-65
2024/01/27 00:29:04;;;;;;;17.85;6.88;;;;;;;2.07;100.00;103426.47;5018197;28;20058;-65
2024/01/27 00:31:29;;;;;;;15.25;6.45;;;;;;;2.07;100.00;103426.47;5014628;28;20044;-65
2024/01/27 00:33:55;;;;;;;21.02;6.85;;;;;;;2.04;100.00;103435.19;5017499;28;20072;-65
2024/01/27 00:36:20;;;;;;;15.35;6.10;;;;;;;2.03;100.00;103436.97;5023049;28;20060;-65
2024/01/27 00:38:45;;;;;;;20.20;7.15;;;;;;;2.01;100.00;103443.91;5018236;28;20386;-65
2024/01/27 00:41:16;;;;;;;15.32;6.13;;;;;;;2.01;100.00;103449.16;5019237;28;20029;-65
2024/01/27 00:43:41;;;;;;;18.35;6.05;;;;;;;2.00;100.00;103451.81;5014851;28;20042;-65
2024/01/27 00:46:06;;;;;;;18.63;6.68;;;;;;;2.01;100.00;103451.78;5018304;28;20431;-65
2024/01/27 00:48:32;;;;;;;19.42;6.57;;;;;;;1.99;100.00;103450.06;5020278;28;20038;-65
2024/01/27 00:50:57;;;;;;;17.60;6.25;;;;;;;2.01;100.00;103454.41;5021160;28;20372;-65
2024/01/27 00:53:23;;;;;;;18.98;6.60;;;;;;;2.00;100.00;103451.81;5018073;28;20033;-65
2024/01/27 00:55:49;;;;;;;17.90;6.35;;;;;;;1.99;100.00;103452.69;5011180;28;20038;-65
2024/01/27 00:58:15;;;;;;;19.10;6.68;;;;;;;1.97;100.00;103457.91;5020672;28;20026;-65
2024/01/27 01:00:40;;;;;;;20.23;7.07;;;;;;;1.95;100.00;103451.81;5017941;28;20033;-65
2024/01/27 01:03:06;;;;;;;18.35;6.50;;;;;;;1.96;100.00;103447.41;5019711;28;20430;-65
2024/01/27 01:05:31;;;;;;;17.65;6.32;;;;;;;1.94;100.00;103451.78;5016779;28;20041;-64
2024/01/27 01:07:57;;;;;;;14.38;6.32;;;;;;;1.92;100.00;103449.16;5018662;28;20531;-65
2024/01/27 01:10:22;;;;;;;20.95;7.20;;;;;;;1.89;100.00;103457.03;5012155;28;20032;-65
2024/01/27 01:12:47;;;;;;;20.33;6.80;;;;;;;1.89;100.00;103464.03;5023597;28;20086;-65
2024/01/27 01:15:13;;;;;;;15.98;6.78;;;;;;;1.84;100.00;103467.50;5020880;28;20052;-65
2024/01/27 01:17:38;;;;;;;17.23;6.55;;;;;;;1.81;100.00;103464.84;5022471;28;20030;-65
2024/01/27 01:20:04;;;;;;;12.07;5.80;;;;;;;1.79;100.00;103456.13;5018625;28;20105;-65
2024/01/27 01:22:29;;;;;;;18.08;6.97;;;;;;;1.76;100.00;103458.72;5015069;28;20479;-65
2024/01/27 01:24:55;;;;;;;18.33;7.05;;;;;;;1.74;100.00;103464.84;5021193;28;20025;-65
2024/01/27 01:27:21;;;;;;;20.85;6.93;;;;;;;1.70;100.00;103465.69;5022054;28;20037;-65
2024/01/27 01:29:46;;;;;;;19.88;6.60;;;;;;;1.65;100.00;103455.22;5021163;28;20034;-65
2024/01/27 01:32:11;;;;;;;16.67;7.20;;;;;;;1.62;100.00;103455.22;5019509;28;20041;-65
2024/01/27 01:34:37;;;;;;;15.70;7.22;;;;;;;1.62;100.00;103461.31;5023344;28;20060;-65
2024/01/27 01:37:02;;;;;;;20.17;6.93;;;;;;;1.58;100.00;103459.59;5019115;28;20038;-65
2024/01/27 01:39:28;;;;;;;17.38;6.82;;;;;;;1.52;100.00;103451.69;5018898;28;20030;-65
2024/01/27 01:41:53;;;;;;;19.35;7.45;;;;;;;1.50;100.00;103458.69;5021504;28;20089;-65
2024/01/27 01:44:18;;;;;;;21.67;7.50;;;;;;;1.50;100.00;103471.78;5021004;28;20029;-65
2024/01/27 01:46:44;;;;;;;18.38;6.82;;;;;;;1.49;100.00;103462.16;5023037;28;20026;-65
2024/01/27 01:49:10;;;;;;;19.80;7.72;;;;;;;1.44;100.00;103456.03;5020427;28;20469;-65
2024/01/27 01:51:35;;;;;;;12.88;6.22;;;;;;;1.42;100.00;103469.13;5020931;28;20062;-65
2024/01/27 01:54:02;;;;;;;19.45;7.22;;;;;;;1.40;100.00;103467.34;5018933;28;20077;-65
2024/01/27 01:56:27;;;;;;;20.58;7.50;;;;;;;1.40;100.00;103475.19;5019628;28;20064;-65
2024/01/27 01:58:54;;;;;;;20.05;7.13;;;;;;;1.38;100.00;103472.59;5019302;28;20065;-65
2024/01/27 02:01:21;;;;;;;16.20;7.20;;;;;;;1.37;100.00;103472.59;5021944;28;20025;-65
2024/01/27 02:03:53;;;;;;;20.90;7.20;;;;;;;1.36;100.00;103462.97;5019521;28;20506;-65
2024/01/27 02:06:18;;;;;;;17.75;6.90;;;;;;;1.34;100.00;103464.72;5019561;28;20475;-65
2024/01/27 02:08:44;;;;;;;21.55;7.72;;;;;;;1.32;100.00;103461.22;5021028;28;20040;-65
2024/01/27 02:11:09;;;;;;;19.17;7.18;;;;;;;1.33;100.00;103470.81;5021627;28;20029;-65
2024/01/27 02:13:34;;;;;;;20.73;7.22;;;;;;;1.31;100.00;103465.56;5016430;28;20166;-65
2024/01/27 02:16:00;;;;;;;19.65;7.28;;;;;;;1.31;100.00;103464.69;5020859;28;20437;-65
2024/01/27 02:18:25;;;;;;;14.88;7.68;;;;;;;1.27;100.00;103464.69;5020218;28;20041;-65
2024/01/27 02:20:50;;;;;;;17.92;7.00;;;;;;;1.25;100.00;103471.66;5020681;28;20022;-65
2024/01/27 02:23:16;;;;;;;18.15;7.45;;;;;;;1.24;100.00;103474.28;5021507;28;20387;-65
2024/01/27 02:25:41;;;;;;;17.08;7.10;;;;;;;1.24;100.00;103471.66;5021449;28;20065;-65
2024/01/27 02:28:06;;;;;;;18.88;7.63;;;;;;;1.24;100.00;103471.66;5017386;28;20033;-65
2024/01/27 02:30:32;;;;;;;19.42;7.15;;;;;;;1.24;100.00;103477.75;5018155;28;20136;-65
2024/01/27 02:32:58;;;;;;;18.92;7.35;;;;;;;1.23;100.00;103481.25;5021332;28;20516;-65
2024/01/27 02:35:23;;;;;;;15.23;7.20;;;;;;;1.24;100.00;103474.28;5018012;28;20483;-65
2024/01/27 02:37:48;;;;;;;24.17;7.78;;;;;;;1.21;100.00;103472.50;5021492;28;20032;-65
2024/01/27 02:40:14;;;;;;;19.95;6.97;;;;;;;1.21;100.00;103472.50;5018109;28;20024;-65
2024/01/27 02:42:42;;;;;;;19.17;6.95;;;;;;;1.19;100.00;103479.47;5020105;28;20475;-65
2024/01/27 02:45:07;;;;;;;17.77;6.75;;;;;;;1.18;100.00;103471.63;5018690;28;20072;-65
2024/01/27 02:47:33;;;;;;;19.75;7.25;;;;;;;1.18;100.00;103469.84;5020681;28;20057;-65
2024/01/27 02:49:58;;;;;;;19.38;7.45;;;;;;;1.17;100.00;103478.59;5018788;28;20467;-65
2024/01/27 02:52:23;;;;;;;18.02;7.03;;;;;;;1.16;100.00;103484.69;5018161;28;20025;-65
2024/01/27 02:54:49;;;;;;;17.92;6.78;;;;;;;1.16;100.00;103475.97;5020903;28;20460;-65
2024/01/27 02:57:15;;;;;;;14.60;6.78;;;;;;;1.15;100.00;103471.59;5018748;28;20511;-65
2024/01/27 02:59:40;;;;;;;22.80;7.55;;;;;;;1.15;100.00;103479.44;5021282;28;20022;-65
2024/01/27 03:02:06;;;;;;;19.33;7.22;;;;;;;1.12;100.00;103475.09;5021055;28;20026;-65
2024/01/27 03:04:31;;;;;;;17.30;6.88;;;;;;;1.10;100.00;103468.97;5020311;28;20048;-65
2024/01/27 03:06:56;;;;;;;19.88;7.40;;;;;;;1.09;100.00;103469.84;5023596;28;20017;-65
2024/01/27 03:09:22;;;;;;;19.13;7.28;;;;;;;1.09;100.00;103472.44;5016896;28;20022;-65
2024/01/27 03:11:47;;;;;;;20.48;7.68;;;;;;;1.08;100.00;103466.34;5015322;28;20040;-65
2024/01/27 03:14:12;;;;;;;15.38;7.50;;;;;;;1.07;100.00;103468.94;5019894;28;20053;-65
2024/01/27 03:16:38;;;;;;;22.08;7.22;;;;;;;1.05;100.00;103479.41;5020169;28;20471;-65
2024/01/27 03:19:03;;;;;;;19.45;7.10;;;;;;;1.04;100.00;103475.03;5020378;28;20029;-65
2024/01/27 03:21:29;;;;;;;20.20;7.25;;;;;;;1.03;100.00;103475.03;5017794;28;20112;-65
2024/01/27 03:23:54;;;;;;;16.33;7.38;;;;;;;1.03;100.00;103482.88;5020570;28;20030;-65
2024/01/27 03:26:19;;;;;;;16.92;7.65;;;;;;;1.02;100.00;103481.13;5018947;28;20067;-65
2024/01/27 03:28:45;;;;;;;19.45;6.93;;;;;;;1.02;100.00;103475.91;5016078;28;20534;-65
2024/01/27 03:31:10;;;;;;;17.85;7.25;;;;;;;1.00;100.00;103481.13;5019312;28;20060;-65
2024/01/27 03:33:35;;;;;;;20.00;7.18;;;;;;;1.01;100.00;103476.75;5021062;28;20438;-65
2024/01/27 03:36:01;;;;;;;20.70;6.85;;;;;;;0.99;100.00;103479.38;5020990;28;20040;-65
2024/01/27 03:38:26;;;;;;;19.20;7.82;;;;;;;0.99;100.00;103497.69;5019089;28;20121;-65
2024/01/27 03:40:51;;;;;;;19.73;7.32;;;;;;;0.97;100.00;103493.31;5021955;28;20034;-65
2024/01/27 03:43:17;;;;;;;26.02;7.05;;;;;;;0.94;100.00;103494.16;5019852;28;20041;-65
2024/01/27 03:45:42;;;;;;;14.95;7.13;;;;;;;0.94;100.00;103495.91;5051469;28;20029;-65
2024/01/27 03:48:07;;;;;;;19.48;8.00;;;;;;;0.94;100.00;103488.94;5017629;28;20048;-65
2024/01/27 03:50:32;;;;;;;15.95;6.95;;;;;;;0.90;100.00;103485.44;5021707;28;20417;-65
2024/01/27 03:52:58;;;;;;;17.83;6.63;;;;;;;0.89;100.00;103485.41;5014477;28;20109;-65
2024/01/27 03:55:23;;;;;;;19.67;6.78;;;;;;;0.89;100.00;103488.91;5018571;28;20483;-65
2024/01/27 03:57:48;;;;;;;18.27;7.25;;;;;;;0.86;100.00;103478.41;5015233;28;20032;-65
2024/01/27 04:00:14;;;;;;;22.38;6.97;;;;;;;0.84;100.00;103480.16;5019024;28;20033;-65
2024/01/27 04:02:39;;;;;;;20.08;7.15;;;;;;;0.83;100.00;103485.38;5016252;28;20045;-65
2024/01/27 04:05:06;;;;;;;18.67;6.72;;;;;;;0.82;100.00;103486.25;5017721;28;20025;-65
2024/01/27 04:07:31;;;;;;;21.10;6.32;;;;;;;0.82;100.00;103487.13;5017343;28;20030;-65
2024/01/27 04:09:56;;;;;;;17.75;6.60;;;;;;;0.80;100.00;103494.09;5021520;28;20079;-65
2024/01/27 04:12:22;;;;;;;17.30;6.70;;;;;;;0.80;100.00;103483.63;5015901;28;20025;-65
2024/01/27 04:14:47;;;;;;;19.17;6.28;;;;;;;0.80;100.00;103496.69;5018328;28;20025;-65
2024/01/27 04:17:12;;;;;;;16.52;6.20;;;;;;;0.80;100.00;103494.09;5004025;28;20056;-65
2024/01/27 04:19:37;;;;;;;22.40;6.95;;;;;;;0.80;100.00;103490.56;5016405;28;20034;-65
2024/01/27 04:22:03;;;;;;;18.75;6.57;;;;;;;0.81;100.00;103497.56;5015569;28;20026;-65
2024/01/27 04:24:29;;;;;;;19.40;6.65;;;;;;;0.78;100.00;103492.31;5020100;28;20037;-65
2024/01/27 04:26:54;;;;;;;17.00;6.90;;;;;;;0.77;100.00;103494.06;5019348;28;20091;-65
2024/01/27 04:29:19;;;;;;;18.98;6.85;;;;;;;0.76;100.00;103491.44;5016032;28;20033;-65
2024/01/27 04:31:44;;;;;;;18.35;6.70;;;;;;;0.75;100.00;103495.78;5018383;28;20037;-65
2024/01/27 04:34:10;;;;;;;13.15;6.25;;;;;;;0.75;100.00;103493.19;5021644;28;20025;-65
2024/01/27 04:36:36;;;;;;;16.25;6.80;;;;;;;0.72;100.00;103495.78;5018353;28;20053;-65
2024/01/27 04:39:02;;;;;;;15.77;6.68;;;;;;;0.70;100.00;103492.25;5022249;28;20022;-65
2024/01/27 04:41:27;;;;;;;17.35;6.10;;;;;;;0.67;100.00;103487.88;5016713;28;20099;-65
2024/01/27 04:43:53;;;;;;;14.48;6.40;;;;;;;0.65;100.00;103499.19;5019281;28;20037;-65
2024/01/27 04:46:18;;;;;;;18.17;6.35;;;;;;;0.62;100.00;103501.81;5025278;28;20022;-65
2024/01/27 04:48:43;;;;;;;19.77;6.85;;;;;;;0.59;100.00;103496.53;5022357;28;20040;-65
2024/01/27 04:51:09;;;;;;;23.08;7.35;;;;;;;0.57;100.00;103498.25;5025486;28;20525;-65
2024/01/27 04:53:34;;;;;;;21.20;7.00;;;;;;;0.54;100.00;103497.34;5023738;28;20029;-65
2024/01/27 04:55:59;;;;;;;21.35;6.97;;;;;;;0.50;100.00;103494.69;5023045;28;20486;-65
2024/01/27 04:58:24;;;;;;;15.75;7.28;;;;;;;0.47;100.00;103489.47;5024388;28;20022;-65
2024/01/27 05:00:50;;;;;;;16.17;6.85;;;;;;;0.43;100.00;103493.78;5020291;28;20025;-65
2024/01/27 05:03:15;;;;;;;16.17;6.80;;;;;;;0.42;100.00;103493.75;5020366;28;20483;-65
2024/01/27 05:05:42;;;;;;;18.33;6.97;;;;;;;0.40;100.00;103491.16;5025808;28;20061;-65
2024/01/27 05:08:07;;;;;;;16.30;7.03;;;;;;;0.39;100.00;103494.63;5021930;28;20032;-65
2024/01/27 05:10:32;;;;;;;16.92;6.60;;;;;;;0.38;100.00;103495.47;5024693;28;20025;-65
2024/01/27 05:12:59;;;;;;;14.52;6.60;;;;;;;0.40;100.00;103492.88;5020644;28;20401;-65
2024/01/27 05:15:24;;;;;;;20.73;7.70;;;;;;;0.40;100.00;103500.72;5018883;28;20022;-65
2024/01/27 05:17:50;;;;;;;17.67;7.20;;;;;;;0.40;100.00;103500.72;5018939;28;20026;-65
2024/01/27 05:20:15;;;;;;;14.25;7.00;;;;;;;0.39;100.00;103506.84;5024395;28;20116;-65
2024/01/27 05:22:40;;;;;;;17.80;7.18;;;;;;;0.38;100.00;103494.59;5021699;28;20018;-65
2024/01/27 05:25:06;;;;;;;17.88;7.57;;;;;;;0.37;100.00;103496.34;5019969;28;20030;-65
2024/01/27 05:27:31;;;;;;;17.95;7.05;;;;;;;0.37;100.00;103498.97;5022116;28;20109;-65
2024/01/27 05:29:56;;;;;;;14.25;7.15;;;;;;;0.36;100.00;103499.81;5022390;28;20030;-65
2024/01/27 05:32:22;;;;;;;16.08;7.25;;;;;;;0.34;100.00;103499.81;5020323;28;20381;-65
2024/01/27 05:34:47;;;;;;;18.42;6.85;;;;;;;0.35;100.00;103498.06;5020697;28;20645;-65
2024/01/27 05:37:13;;;;;;;18.90;7.93;;;;;;;0.33;100.00;103494.56;5018676;28;20025;-65
2024/01/27 05:39:38;;;;;;;22.23;8.10;;;;;;;0.34;100.00;103488.47;5019591;28;20410;-65
2024/01/27 05:42:04;;;;;;;16.55;8.25;;;;;;;0.34;100.00;103488.47;5020581;28;20022;-65
2024/01/27 05:44:29;;;;;;;24.40;7.75;;;;;;;0.33;100.00;103481.50;5020691;28;20052;-65
2024/01/27 05:46:54;;;;;;;23.67;7.50;;;;;;;0.32;100.00;103479.75;5014496;28;20018;-65
2024/01/27 05:49:20;;;;;;;19.90;7.43;;;;;;;0.32;100.00;103482.38;5018732;28;20037;-65
2024/01/27 05:51:45;;;;;;;28.85;8.05;;;;;;;0.28;100.00;103478.81;5018186;28;20032;-65
2024/01/27 05:54:14;;;;;;;19.88;7.93;;;;;;;0.27;100.00;103471.88;5022071;28;20487;-65
2024/01/27 05:56:40;;;;;;;17.55;7.72;;;;;;;0.25;100.00;103472.69;5017648;28;20444;-65
2024/01/27 05:59:05;;;;;;;17.42;7.55;;;;;;;0.24;100.00;103469.22;5021040;28;20140;-65
2024/01/27 06:01:31;;;;;;;23.25;7.75;;;;;;;0.24;100.00;103486.66;5016843;28;20025;-65
2024/01/27 06:03:56;;;;;;;16.13;7.28;;;;;;;0.23;100.00;103487.50;5021581;28;20054;-65
2024/01/27 06:06:21;;;;;;;17.50;8.07;;;;;;;0.23;100.00;103487.50;5018450;28;20041;-65
2024/01/27 06:08:46;;;;;;;17.15;7.32;;;;;;;0.21;100.00;103484.00;5019321;28;20053;-65
2024/01/27 06:11:12;;;;;;;21.52;8.15;;;;;;;0.20;100.00;103475.31;5018496;28;20026;-65
2024/01/27 06:13:40;;;;;;;21.33;8.23;;;;;;;0.20;100.00;103470.06;5017892;28;20030;-65
2024/01/27 06:16:09;;;;;;;17.05;7.90;;;;;;;0.21;100.00;103476.16;5016568;28;20042;-65
2024/01/27 06:18:35;;;;;;;21.23;8.07;;;;;;;0.21;100.00;103465.72;5020473;28;20029;-65
2024/01/27 06:21:00;;;;;;;19.10;8.57;;;;;;;0.24;100.00;103481.44;5015472;28;20022;-65
2024/01/27 06:23:26;;;;;;;19.15;8.23;;;;;;;0.24;100.00;103479.69;5018795;28;20045;-65
2024/01/27 06:25:52;;;;;;;18.88;8.60;;;;;;;0.26;100.00;103472.72;5017766;28;20061;-65
2024/01/27 06:28:17;;;;;;;18.23;7.93;;;;;;;0.29;100.00;103482.34;5021722;28;20365;-64
2024/01/27 06:30:42;;;;;;;15.57;8.43;;;;;;;0.30;100.00;103484.97;5020868;28;20057;-64
2024/01/27 06:33:08;;;;;;;20.52;8.68;;;;;;;0.30;100.00;103484.97;5013288;28;20026;-64
2024/01/27 06:35:33;;;;;;;18.45;8.05;;;;;;;0.31;100.00;103478.00;5015435;28;20038;-65
2024/01/27 06:37:58;;;;;;;19.83;8.27;;;;;;;0.31;100.00;103475.38;5020497;28;20040;-64
2024/01/27 06:40:24;;;;;;;18.00;8.75;;;;;;;0.35;100.00;103485.88;5019455;28;20037;-64
2024/01/27 06:42:49;;;;;;;19.55;7.53;;;;;;;0.36;100.00;103486.75;5018182;28;20463;-65
2024/01/27 06:45:14;;;;;;;17.20;7.70;;;;;;;0.36;100.00;103485.00;5020105;28;20022;-65
2024/01/27 06:47:40;;;;;;;19.20;8.27;;;;;;;0.34;100.00;103491.97;5019081;28;20501;-65
2024/01/27 06:50:06;;;;;;;18.65;8.18;;;;;;;0.33;100.00;103500.69;5019562;28;20022;-65
2024/01/27 06:52:31;;;;;;;21.88;8.00;;;;;;;0.34;100.00;103504.16;5021183;28;20353;-65
2024/01/27 06:54:56;;;;;;;15.32;7.75;;;;;;;0.34;100.00;103505.03;5016793;28;20561;-66
2024/01/27 06:57:23;;;;;;;18.33;8.38;;;;;;;0.35;100.00;103513.75;5018786;28;20026;-66
2024/01/27 06:59:53;;;;;;;15.27;8.48;;;;;;;0.36;100.00;103524.22;5017362;28;20033;-66
2024/01/27 07:02:22;;;;;;;22.13;9.45;;;;;;;0.37;100.00;103525.13;5011768;28;20072;-66
2024/01/27 07:04:48;;;;;;;17.10;7.88;;;;;;;0.40;100.00;103519.03;5008692;28;20204;-65
2024/01/27 07:07:13;;;;;;;19.52;8.27;;;;;;;0.38;100.00;103529.47;5015091;28;20120;-65
2024/01/27 07:09:38;;;;;;;18.17;7.82;;;;;;;0.31;100.00;103523.31;5017093;28;20072;-65
2024/01/27 07:12:04;;;;;;;15.95;7.72;;;;;;;0.27;100.00;103528.50;5020491;28;20026;-65
2024/01/27 07:14:29;;;;;;;21.00;8.38;;;;;;;0.21;100.00;103524.06;5016866;28;20407;-65
2024/01/27 07:16:54;;;;;;;20.15;8.70;;;;;;;0.17;100.00;103525.78;5006190;28;20550;-65
2024/01/27 07:19:20;;;;;;;18.17;9.18;;;;;;;0.12;100.00;103519.66;5014328;28;20034;-65
2024/01/27 07:21:45;;;;;;;20.95;9.13;;;;;;;0.07;100.00;103526.56;5010598;28;20026;-65
2024/01/27 07:24:10;;;;;;;19.58;9.63;;;;;;;0.03;100.00;103527.38;5018127;28;20167;-65
2024/01/27 07:26:35;;;;;;;22.55;9.60;;;;;;;-0.01;100.00;103530.81;5010765;28;20379;-65
2024/01/27 07:29:01;;;;;;;23.17;9.77;;;;;;;-0.05;100.00;103526.41;5014638;28;20164;-65
2024/01/27 07:31:26;;;;;;;15.35;8.35;;;;;;;-0.09;100.00;103532.47;5019757;28;20386;-65
2024/01/27 07:33:51;;;;;;;22.05;9.75;;;;;;;-0.11;100.00;103527.22;5012677;28;20029;-65
2024/01/27 07:36:17;;;;;;;21.05;9.00;;;;;;;-0.13;100.00;103538.50;5019104;28;20066;-65
2024/01/27 07:38:42;;;;;;;23.65;9.88;;;;;;;-0.15;100.00;103540.22;5012863;28;20030;-65
2024/01/27 07:41:07;;;;;;;19.48;9.55;;;;;;;-0.17;100.00;103536.72;5016756;28;20029;-65
2024/01/27 07:43:33;;;;;;;21.90;9.75;;;;;;;-0.19;100.00;103534.09;5015196;28;20022;-65
2024/01/27 07:45:58;;;;;;;18.95;9.27;;;;;;;-0.21;100.00;103534.06;5015732;28;20022;-65
2024/01/27 07:48:23;;;;;;;24.27;9.32;;;;;;;-0.21;100.00;103533.22;5019868;28;20516;-65
2024/01/27 07:50:50;;;;;;;21.02;9.23;;;;;;;-0.21;100.00;103541.03;5016619;28;20037;-65
2024/01/27 07:53:16;;;;;;;26.65;9.63;;;;;;;-0.22;100.00;103548.03;5014679;28;20639;-65
2024/01/27 07:55:41;;;;;;;23.38;10.23;;;;;;;-0.20;100.00;103540.16;5012772;28;20057;-65
2024/01/27 07:58:06;;;;;;;28.83;9.73;;;;;;;-0.21;100.00;103538.44;5014937;28;20076;-65
2024/01/27 08:00:32;;;;;;;22.77;9.77;;;;;;;-0.21;100.00;103546.28;5014200;28;20480;-65
2024/01/27 08:02:58;;;;;;;22.55;10.02;;;;;;;-0.21;100.00;103544.53;5012248;28;20038;-65
2024/01/27 08:05:23;;;;;;;25.60;10.25;;;;;;;-0.21;100.00;103536.69;5012937;28;20033;-65
2024/01/27 08:07:48;;;;;;;26.58;10.32;;;;;;;-0.18;100.00;103535.88;5016724;28;20391;-65
2024/01/27 08:10:14;;;;;;;25.58;9.65;;;;;;;-0.19;100.00;103532.34;5017943;28;20018;-65
2024/01/27 08:12:39;;;;;;;20.27;9.68;;;;;;;-0.16;100.00;103528.91;5016791;28;20375;-65
2024/01/27 08:15:05;;;;;;;24.98;10.77;;;;;;;-0.15;100.00;103520.22;5019833;28;20088;-65
2024/01/27 08:17:30;;;;;;;26.00;10.38;;;;;;;-0.16;100.00;103526.31;5014226;28;20025;-65
2024/01/27 08:19:56;;;;;;;22.80;9.25;;;;;;;-0.12;100.00;103529.81;5019539;28;20048;-65
2024/01/27 08:22:21;;;;;;;27.05;10.95;;;;;;;-0.10;100.00;103526.38;5024155;28;20033;-65
2024/01/27 08:24:46;;;;;;;21.85;9.90;;;;;;;-0.08;100.00;103531.63;5028425;28;20025;-65
2024/01/27 08:27:11;;;;;;;31.10;10.27;;;;;;;-0.06;100.00;103524.69;5022459;28;20410;-65
2024/01/27 08:29:37;;;;;;;26.42;10.80;;;;;;;-0.06;100.00;103515.09;5024840;28;20046;-64
2024/01/27 08:32:02;;;;;;;24.70;10.98;;;;;;;-0.01;100.00;103523.00;5020345;28;21135;-65
2024/01/27 08:34:28;;;;;;;24.85;10.85;;;;;;;0.01;100.00;103516.03;5019740;28;20387;-65
2024/01/27 08:36:53;;;;;;;23.42;10.50;;;;;;;0.05;100.00;103528.28;5021500;28;20127;-65
2024/01/27 08:39:18;;;;;;;21.92;10.73;;;;;;;0.08;100.00;103525.69;5022241;28;20036;-66
2024/01/27 08:41:44;;;;;;;25.95;10.65;;;;;;;0.12;100.00;103532.72;5022235;28;20030;-66
2024/01/27 08:44:09;;;;;;;29.85;11.13;;;;;;;0.17;100.00;103533.63;5021594;28;20038;-66
2024/01/27 08:46:34;;;;;;;25.08;9.98;;;;;;;0.25;100.00;103536.34;5023581;28;20021;-66
2024/01/27 08:48:59;;;;;;;28.90;10.55;;;;;;;0.33;100.00;103546.84;5023683;28;20116;-64
2024/01/27 08:51:25;;;;;;;27.63;10.90;;;;;;;0.39;100.00;103541.69;5021815;28;20038;-64
2024/01/27 08:53:50;;;;;;;26.42;10.88;;;;;;;0.46;100.00;103538.25;5025749;28;20136;-64
2024/01/27 08:56:18;;;;;;;26.20;9.25;;;;;;;0.53;100.00;103544.41;5023384;28;20080;-64
2024/01/27 08:58:44;;;;;;;27.15;10.45;;;;;;;0.62;100.00;103538.41;5022400;28;20042;-64
2024/01/27 09:01:12;;;;;;;22.38;9.98;;;;;;;0.69;100.00;103546.31;5021815;28;20033;-64
2024/01/27 09:03:40;;;;;;;29.02;10.52;;;;;;;0.78;100.00;103557.72;5022885;28;20027;-64
2024/01/27 09:06:05;;;;;;;22.95;10.77;;;;;;;0.85;100.00;103544.69;5014815;28;20483;-64
2024/01/27 09:08:30;;;;;;;25.15;10.05;;;;;;;0.95;100.00;103549.97;5015045;28;20029;-64
2024/01/27 09:10:56;;;;;;;22.85;9.77;;;;;;;1.02;100.00;103550.06;5023130;28;20022;-63
2024/01/27 09:13:21;;;;;;;22.45;9.80;;;;;;;1.11;100.00;103542.25;5023778;28;20029;-63
2024/01/27 09:15:46;;;;;;;26.30;10.43;;;;;;;1.21;100.00;103548.41;5022321;28;20025;-63
2024/01/27 09:18:11;;;;;;;25.05;10.43;;;;;;;1.33;100.00;103555.47;5023034;28;21484;-63
2024/01/27 09:20:37;;;;;;;25.58;9.35;;;;;;;1.43;100.00;103556.41;5015536;28;20438;-62
2024/01/27 09:23:02;;;;;;;24.77;10.00;;;;;;;1.53;100.00;103558.19;5019257;28;20014;-63
2024/01/27 09:25:27;;;;;;;26.95;9.95;;;;;;;1.66;100.00;103564.38;5018633;28;20083;-63
2024/01/27 09:27:53;;;;;;;22.15;9.75;;;;;;;1.77;100.00;103562.69;5021351;28;20033;-64
2024/01/27 09:30:19;;;;;;;25.13;10.02;;;;;;;1.90;100.00;103560.09;5021328;28;20037;-63
2024/01/27 09:32:44;;;;;;;20.83;9.82;;;;;;;1.97;100.00;103567.13;5021398;28;20035;-63
2024/01/27 09:35:09;;;;;;;23.25;9.40;;;;;;;2.08;100.00;103581.13;5021689;28;20018;-63
2024/01/27 09:37:34;;;;;;;19.27;9.60;;;;;;;2.14;100.00;103581.16;5017460;28;20026;-63
2024/01/27 09:40:04;;;;;;;16.80;8.95;;;;;;;2.24;100.00;103589.06;5015247;28;20117;-64
2024/01/27 09:42:33;;;;;;;24.40;9.52;;;;;;;2.34;100.00;103589.06;5014518;28;20026;-63
2024/01/27 09:44:59;;;;;;;24.80;9.57;;;;;;;2.48;100.00;103582.97;5021306;28;20053;-63
2024/01/27 09:47:25;;;;;;;21.83;9.02;;;;;;;2.61;100.00;103589.13;5016153;28;20064;-63
2024/01/27 09:49:51;;;;;;;22.75;9.43;;;;;;;2.72;100.00;103584.75;5020834;28;20025;-63
2024/01/27 09:52:16;;;;;;;29.33;9.30;;;;;;;2.81;100.00;103587.38;5018943;28;20029;-63
2024/01/27 09:54:41;;;;;;;22.55;9.13;;;;;;;2.94;100.00;103583.88;5015351;28;20096;-63
2024/01/27 09:57:08;;;;;;;25.25;9.07;;;;;;;3.05;100.00;103589.13;5012954;28;20061;-63
2024/01/27 09:59:35;;;;;;;23.35;8.63;;;;;;;3.18;100.00;103595.25;5015748;28;20026;-63
2024/01/27 10:02:03;;;;;;;23.17;8.63;;;;;;;3.31;100.00;103602.25;5013063;28;20022;-63
2024/01/27 10:04:30;;;;;;;22.45;9.65;;;;;;;3.44;100.00;103599.56;5013225;28;20475;-63
2024/01/27 10:06:58;;;;;;;18.35;8.90;;;;;;;3.56;100.00;103599.53;5014261;28;20080;-63
2024/01/27 10:09:23;;;;;;;24.10;8.80;;;;;;;3.68;100.00;103596.00;5021115;28;20040;-63
2024/01/27 10:11:49;;;;;;;24.17;8.15;;;;;;;3.78;100.00;103597.72;5019709;28;20037;-63
2024/01/27 10:14:14;;;;;;;19.40;7.78;;;;;;;3.90;100.00;103602.06;5020415;28;20080;-64
2024/01/27 10:16:41;;;;;;;24.02;9.50;;;;;;;4.04;100.00;103605.50;5023346;28;20033;-63
2024/01/27 10:19:06;;;;;;;21.88;8.30;;;;;;;4.16;100.00;103594.03;5015757;28;20030;-64
2024/01/27 10:21:31;;;;;;;24.80;8.82;;;;;;;4.32;100.00;103599.22;5017824;28;20037;-64
2024/01/27 10:23:57;;;;;;;20.30;7.78;;;;;;;4.45;100.00;103606.16;5019460;28;20563;-63
2024/01/27 10:26:23;;;;;;;22.38;8.48;;;;;;;4.55;100.00;103607.84;5019539;28;20050;-63
2024/01/27 10:28:55;;;;;;;22.10;7.82;;;;;;;4.68;100.00;103607.75;5019244;28;20034;-63
2024/01/27 10:31:26;;;;;;;20.10;7.75;;;;;;;4.74;100.00;103600.66;5019786;28;20450;-64
2024/01/27 10:33:56;;;;;;;22.35;7.43;;;;;;;4.90;100.00;103606.69;5011975;28;20033;-65
2024/01/27 10:36:21;;;;;;;18.65;7.70;;;;;;;5.02;100.00;103613.63;5017153;28;20391;-64
2024/01/27 10:38:47;;;;;;;18.40;7.35;;;;;;;5.14;100.00;103604.72;5014404;28;20034;-64
2024/01/27 10:41:16;;;;;;;19.48;7.72;;;;;;;5.22;100.00;103600.25;5018633;28;20529;-63
2024/01/27 10:43:42;;;;;;;20.73;8.02;;;;;;;5.33;100.00;103608.94;5015857;28;20033;-63
2024/01/27 10:46:08;;;;;;;18.08;6.60;;;;;;;5.41;100.00;103605.34;5018889;28;20025;-63
2024/01/27 10:48:35;;;;;;;17.88;7.65;;;;;;;5.51;100.00;103607.88;5016723;28;20034;-64
2024/01/27 10:51:07;;;;;;;24.38;7.55;;;;;;;5.63;100.00;103611.25;5017817;28;20045;-63
2024/01/27 10:53:35;;;;;;;25.90;7.95;;;;;;;5.77;100.00;103605.84;5015011;28;20029;-64
2024/01/27 10:56:03;;;;;;;24.35;7.80;;;;;;;5.87;100.00;103604.84;5013502;28;20557;-63
2024/01/27 10:58:30;;;;;;;20.10;7.37;;;;;;;5.97;100.00;103592.44;5014703;28;20034;-64
2024/01/27 11:00:56;;;;;;;19.83;6.57;;;;;;;6.04;100.00;103597.59;5011455;28;20036;-64
2024/01/27 11:03:23;;;;;;;23.23;6.57;;;;;;;6.13;100.00;103593.09;5016991;28;20025;-64
2024/01/27 11:05:50;;;;;;;22.17;7.40;;;;;;;6.23;100.00;103584.16;5019874;28;20037;-64
2024/01/27 11:08:18;;;;;;;24.55;7.35;;;;;;;6.32;100.00;103585.81;5020638;28;20030;-64
2024/01/27 11:10:43;;;;;;;19.55;7.05;;;;;;;6.41;100.00;103583.00;5015993;28;20542;-64